BMV weather

Buon Ma Thuot Airport
Buon Ma Thuot, Dac Lac Province, Vietnam

Public forecast

Using degrees Celsius for public forecast. Weather courtesy of forecast.io.

Closest aviation weather report (METAR) to Buon Ma Thuot Airport

Closest report is Cam Ranh Airport, 76.0 nm (140.7 km) ESE. Retrieved 2020/02/24 17:00 UTC (12 minutes ago):

VVCR 241700Z 04011KT 9999 FEW015 25/22 Q1016 NOSIG

Closest aviation forecast (TAF) to Buon Ma Thuot Airport

Closest forecast is Cam Ranh Airport, 76.0 nm (140.7 km) ESE. Retrieved 2020/02/24 12:00 UTC (5 hours ago):

TAF VVCR 241100Z 2412/2512 04012KT 9999 FEW015 BECMG 2417/2418 34006KT BECMG 2501/2502 04014KT